sensor_id;sensor_type;location;lat;lon;timestamp;temperature;humidity
33414;DHT22;60055;41.884;12.534;2022-10-04T00:01:59;20.60;99.90
33414;DHT22;60055;41.884;12.534;2022-10-04T00:04:57;20.70;99.90
33414;DHT22;60055;41.884;12.534;2022-10-04T00:07:51;20.60;99.90
33414;DHT22;60055;41.884;12.534;2022-10-04T00:10:39;20.60;99.90
33414;DHT22;60055;41.884;12.534;2022-10-04T00:13:38;20.50;99.90
33414;DHT22;60055;41.884;12.534;2022-10-04T00:16:19;20.50;99.90
33414;DHT22;60055;41.884;12.534;2022-10-04T00:19:36;20.40;99.90
33414;DHT22;60055;41.884;12.534;2022-10-04T00:22:12;20.40;99.90
33414;DHT22;60055;41.884;12.534;2022-10-04T00:27:38;20.40;99.90
33414;DHT22;60055;41.884;12.534;2022-10-04T00:33:04;20.40;99.90
33414;DHT22;60055;41.884;12.534;2022-10-04T00:38:16;20.40;99.90
33414;DHT22;60055;41.884;12.534;2022-10-04T00:41:04;20.50;99.90
33414;DHT22;60055;41.884;12.534;2022-10-04T00:43:57;20.40;99.90
33414;DHT22;60055;41.884;12.534;2022-10-04T00:46:28;20.40;99.90
33414;DHT22;60055;41.884;12.534;2022-10-04T00:49:00;20.40;99.90
33414;DHT22;60055;41.884;12.534;2022-10-04T00:51:42;20.40;99.90
33414;DHT22;60055;41.884;12.534;2022-10-04T00:57:41;20.40;99.90
33414;DHT22;60055;41.884;12.534;2022-10-04T01:00:19;20.40;99.90
33414;DHT22;60055;41.884;12.534;2022-10-04T01:03:04;20.30;99.90
33414;DHT22;60055;41.884;12.534;2022-10-04T01:05:41;20.30;99.90
33414;DHT22;60055;41.884;12.534;2022-10-04T01:08:17;20.30;99.90
33414;DHT22;60055;41.884;12.534;2022-10-04T01:10:56;20.30;99.90
33414;DHT22;60055;41.884;12.534;2022-10-04T01:13:39;20.30;99.90
33414;DHT22;60055;41.884;12.534;2022-10-04T01:16:40;20.20;99.90
33414;DHT22;60055;41.884;12.534;2022-10-04T01:19:27;20.20;99.90
33414;DHT22;60055;41.884;12.534;2022-10-04T01:22:28;20.20;99.90
33414;DHT22;60055;41.884;12.534;2022-10-04T01:24:58;20.20;99.90
33414;DHT22;60055;41.884;12.534;2022-10-04T01:27:52;20.20;99.90
33414;DHT22;60055;41.884;12.534;2022-10-04T01:30:46;20.00;99.90
33414;DHT22;60055;41.884;12.534;2022-10-04T01:33:39;20.10;99.90
33414;DHT22;60055;41.884;12.534;2022-10-04T01:36:20;20.30;99.90
33414;DHT22;60055;41.884;12.534;2022-10-04T01:38:48;20.50;99.90
33414;DHT22;60055;41.884;12.534;2022-10-04T01:41:17;20.50;99.90
33414;DHT22;60055;41.884;12.534;2022-10-04T01:43:59;20.40;99.90
33414;DHT22;60055;41.884;12.534;2022-10-04T01:46:33;20.30;99.90
33414;DHT22;60055;41.884;12.534;2022-10-04T02:03:34;20.30;99.90
33414;DHT22;60055;41.884;12.534;2022-10-04T02:06:10;20.00;99.90
33414;DHT22;60055;41.884;12.534;2022-10-04T02:08:40;19.90;99.90
33414;DHT22;60055;41.884;12.534;2022-10-04T02:11:15;19.90;99.90
33414;DHT22;60055;41.884;12.534;2022-10-04T02:14:02;19.90;99.90
33414;DHT22;60055;41.884;12.534;2022-10-04T02:16:36;19.90;99.90
33414;DHT22;60055;41.884;12.534;2022-10-04T02:19:05;19.90;99.90
33414;DHT22;60055;41.884;12.534;2022-10-04T02:21:42;19.90;99.90
33414;DHT22;60055;41.884;12.534;2022-10-04T02:24:32;19.80;99.90
33414;DHT22;60055;41.884;12.534;2022-10-04T02:26:59;19.90;99.90
33414;DHT22;60055;41.884;12.534;2022-10-04T02:29:38;19.90;99.90
33414;DHT22;60055;41.884;12.534;2022-10-04T02:32:08;19.90;99.90
33414;DHT22;60055;41.884;12.534;2022-10-04T02:34:54;19.90;99.90
33414;DHT22;60055;41.884;12.534;2022-10-04T02:37:26;20.10;99.90
33414;DHT22;60055;41.884;12.534;2022-10-04T02:39:58;20.30;99.90
33414;DHT22;60055;41.884;12.534;2022-10-04T02:42:45;20.00;99.90
33414;DHT22;60055;41.884;12.534;2022-10-04T02:51:31;20.00;99.90
33414;DHT22;60055;41.884;12.534;2022-10-04T02:56:33;19.80;99.90
33414;DHT22;60055;41.884;12.534;2022-10-04T02:59:03;19.80;99.90
33414;DHT22;60055;41.884;12.534;2022-10-04T03:01:56;19.80;99.90
33414;DHT22;60055;41.884;12.534;2022-10-04T03:04:38;19.70;99.90
33414;DHT22;60055;41.884;12.534;2022-10-04T03:07:10;19.80;99.90
33414;DHT22;60055;41.884;12.534;2022-10-04T03:09:42;19.80;99.90
33414;DHT22;60055;41.884;12.534;2022-10-04T03:12:27;19.80;99.90
33414;DHT22;60055;41.884;12.534;2022-10-04T03:14:58;19.90;99.90
33414;DHT22;60055;41.884;12.534;2022-10-04T03:17:28;19.80;99.90
33414;DHT22;60055;41.884;12.534;2022-10-04T03:19:57;19.80;99.90
33414;DHT22;60055;41.884;12.534;2022-10-04T03:22:25;19.70;99.90
33414;DHT22;60055;41.884;12.534;2022-10-04T03:25:13;19.80;99.90
33414;DHT22;60055;41.884;12.534;2022-10-04T03:27:41;19.80;99.90
33414;DHT22;60055;41.884;12.534;2022-10-04T03:30:18;19.70;99.90
33414;DHT22;60055;41.884;12.534;2022-10-04T03:32:52;19.70;99.90
33414;DHT22;60055;41.884;12.534;2022-10-04T03:35:41;19.70;99.90
33414;DHT22;60055;41.884;12.534;2022-10-04T03:38:10;19.60;99.90
33414;DHT22;60055;41.884;12.534;2022-10-04T03:40:43;19.50;99.90
33414;DHT22;60055;41.884;12.534;2022-10-04T03:43:18;19.50;99.90
33414;DHT22;60055;41.884;12.534;2022-10-04T03:45:51;19.60;99.90
33414;DHT22;60055;41.884;12.534;2022-10-04T03:48:30;19.40;99.90
33414;DHT22;60055;41.884;12.534;2022-10-04T03:50:59;19.50;99.90
33414;DHT22;60055;41.884;12.534;2022-10-04T03:53:50;19.50;99.90
33414;DHT22;60055;41.884;12.534;2022-10-04T03:56:23;19.40;99.90
33414;DHT22;60055;41.884;12.534;2022-10-04T03:58:53;19.50;99.90
33414;DHT22;60055;41.884;12.534;2022-10-04T04:01:32;19.40;99.90
33414;DHT22;60055;41.884;12.534;2022-10-04T04:04:28;19.40;99.90
33414;DHT22;60055;41.884;12.534;2022-10-04T04:07:05;19.30;99.90
33414;DHT22;60055;41.884;12.534;2022-10-04T04:15:09;19.30;99.90
33414;DHT22;60055;41.884;12.534;2022-10-04T04:18:01;19.20;99.90
33414;DHT22;60055;41.884;12.534;2022-10-04T04:20:53;19.30;99.90
33414;DHT22;60055;41.884;12.534;2022-10-04T04:23:33;19.30;99.90
33414;DHT22;60055;41.884;12.534;2022-10-04T04:26:27;19.20;99.90
33414;DHT22;60055;41.884;12.534;2022-10-04T04:32:13;19.30;99.90
33414;DHT22;60055;41.884;12.534;2022-10-04T04:35:00;19.20;99.90
33414;DHT22;60055;41.884;12.534;2022-10-04T04:37:35;19.20;99.90
33414;DHT22;60055;41.884;12.534;2022-10-04T04:40:24;19.20;99.90
33414;DHT22;60055;41.884;12.534;2022-10-04T04:42:52;19.20;99.90
33414;DHT22;60055;41.884;12.534;2022-10-04T04:45:18;19.10;99.90
33414;DHT22;60055;41.884;12.534;2022-10-04T04:47:49;19.10;99.90
33414;DHT22;60055;41.884;12.534;2022-10-04T04:50:41;19.10;99.90
33414;DHT22;60055;41.884;12.534;2022-10-04T04:53:11;19.10;99.90
33414;DHT22;60055;41.884;12.534;2022-10-04T04:55:59;19.20;99.90
33414;DHT22;60055;41.884;12.534;2022-10-04T04:58:35;19.20;99.90
33414;DHT22;60055;41.884;12.534;2022-10-04T05:01:17;19.20;99.90
33414;DHT22;60055;41.884;12.534;2022-10-04T05:09:53;19.20;99.90
33414;DHT22;60055;41.884;12.534;2022-10-04T05:12:29;19.10;99.90
33414;DHT22;60055;41.884;12.534;2022-10-04T05:15:07;18.90;99.90
33414;DHT22;60055;41.884;12.534;2022-10-04T05:18:44;18.90;99.90
33414;DHT22;60055;41.884;12.534;2022-10-04T05:20:52;19.00;99.90
33414;DHT22;60055;41.884;12.534;2022-10-04T05:23:27;19.10;99.90
33414;DHT22;60055;41.884;12.534;2022-10-04T05:25:54;18.80;99.90
33414;DHT22;60055;41.884;12.534;2022-10-04T05:28:23;18.70;99.90
33414;DHT22;60055;41.884;12.534;2022-10-04T05:33:57;18.80;99.90
33414;DHT22;60055;41.884;12.534;2022-10-04T05:42:52;18.90;99.90
33414;DHT22;60055;41.884;12.534;2022-10-04T05:45:39;18.90;99.90
33414;DHT22;60055;41.884;12.534;2022-10-04T05:48:06;18.90;99.90
33414;DHT22;60055;41.884;12.534;2022-10-04T05:50:41;19.00;99.90
33414;DHT22;60055;41.884;12.534;2022-10-04T06:22:07;19.60;99.90
33414;DHT22;60055;41.884;12.534;2022-10-04T06:24:39;19.70;99.90
33414;DHT22;60055;41.884;12.534;2022-10-04T06:30:15;19.50;99.90
33414;DHT22;60055;41.884;12.534;2022-10-04T06:36:10;19.80;99.90
33414;DHT22;60055;41.884;12.534;2022-10-04T06:44:36;20.20;99.90
33414;DHT22;60055;41.884;12.534;2022-10-04T06:50:02;20.40;99.90
33414;DHT22;60055;41.884;12.534;2022-10-04T06:55:59;20.70;99.90
33414;DHT22;60055;41.884;12.534;2022-10-04T06:58:52;20.60;99.90
33414;DHT22;60055;41.884;12.534;2022-10-04T07:01:35;20.80;99.90
33414;DHT22;60055;41.884;12.534;2022-10-04T07:04:55;20.80;99.90
33414;DHT22;60055;41.884;12.534;2022-10-04T07:07:29;20.60;99.90
33414;DHT22;60055;41.884;12.534;2022-10-04T07:12:51;21.50;99.90
33414;DHT22;60055;41.884;12.534;2022-10-04T07:15:23;21.80;99.90
33414;DHT22;60055;41.884;12.534;2022-10-04T07:17:52;22.00;99.90
33414;DHT22;60055;41.884;12.534;2022-10-04T07:20:24;22.20;99.90
33414;DHT22;60055;41.884;12.534;2022-10-04T07:25:26;21.80;99.90
33414;DHT22;60055;41.884;12.534;2022-10-04T07:28:09;21.80;99.90
33414;DHT22;60055;41.884;12.534;2022-10-04T07:31:11;21.90;99.90
33414;DHT22;60055;41.884;12.534;2022-10-04T07:33:44;21.70;99.90
33414;DHT22;60055;41.884;12.534;2022-10-04T07:36:16;22.20;99.90
33414;DHT22;60055;41.884;12.534;2022-10-04T07:38:57;22.50;99.90
33414;DHT22;60055;41.884;12.534;2022-10-04T07:41:34;22.80;99.90
33414;DHT22;60055;41.884;12.534;2022-10-04T07:47:01;22.90;99.90
33414;DHT22;60055;41.884;12.534;2022-10-04T07:49:40;23.00;99.90
33414;DHT22;60055;41.884;12.534;2022-10-04T07:55:21;23.20;99.90
33414;DHT22;60055;41.884;12.534;2022-10-04T08:01:02;23.50;99.90
33414;DHT22;60055;41.884;12.534;2022-10-04T08:03:50;23.80;99.90
33414;DHT22;60055;41.884;12.534;2022-10-04T08:15:47;23.10;99.90
33414;DHT22;60055;41.884;12.534;2022-10-04T08:20:58;23.30;99.90
33414;DHT22;60055;41.884;12.534;2022-10-04T08:29:53;24.10;99.90
33414;DHT22;60055;41.884;12.534;2022-10-04T08:32:37;23.40;99.90
33414;DHT22;60055;41.884;12.534;2022-10-04T08:35:58;24.00;99.90
33414;DHT22;60055;41.884;12.534;2022-10-04T08:38:38;24.50;99.90
33414;DHT22;60055;41.884;12.534;2022-10-04T08:50:15;24.80;99.90
33414;DHT22;60055;41.884;12.534;2022-10-04T09:16:15;24.90;99.90
33414;DHT22;60055;41.884;12.534;2022-10-04T09:24:45;25.10;99.90
33414;DHT22;60055;41.884;12.534;2022-10-04T09:30:21;25.10;99.90
33414;DHT22;60055;41.884;12.534;2022-10-04T09:56:45;25.00;99.90
33414;DHT22;60055;41.884;12.534;2022-10-04T10:02:21;24.60;99.90
33414;DHT22;60055;41.884;12.534;2022-10-04T10:05:25;24.50;99.90
33414;DHT22;60055;41.884;12.534;2022-10-04T10:11:20;24.70;99.90
33414;DHT22;60055;41.884;12.534;2022-10-04T10:17:12;24.50;99.90
33414;DHT22;60055;41.884;12.534;2022-10-04T10:23:40;24.70;99.90
33414;DHT22;60055;41.884;12.534;2022-10-04T10:26:05;24.40;99.90
33414;DHT22;60055;41.884;12.534;2022-10-04T10:31:58;24.70;99.90
33414;DHT22;60055;41.884;12.534;2022-10-04T10:40:40;24.80;99.90
33414;DHT22;60055;41.884;12.534;2022-10-04T10:43:43;24.70;99.90
33414;DHT22;60055;41.884;12.534;2022-10-04T10:46:44;24.50;99.90
33414;DHT22;60055;41.884;12.534;2022-10-04T10:49:31;24.70;99.90
33414;DHT22;60055;41.884;12.534;2022-10-04T10:52:34;25.00;99.90
33414;DHT22;60055;41.884;12.534;2022-10-04T11:09:51;24.80;99.90
33414;DHT22;60055;41.884;12.534;2022-10-04T11:12:54;25.00;99.90
33414;DHT22;60055;41.884;12.534;2022-10-04T11:15:56;25.10;99.90
33414;DHT22;60055;41.884;12.534;2022-10-04T11:30:22;25.20;99.90
33414;DHT22;60055;41.884;12.534;2022-10-04T11:33:14;25.30;99.90
33414;DHT22;60055;41.884;12.534;2022-10-04T11:41:24;25.40;99.90
33414;DHT22;60055;41.884;12.534;2022-10-04T11:46:54;25.20;99.90
33414;DHT22;60055;41.884;12.534;2022-10-04T11:55:15;25.50;99.90
33414;DHT22;60055;41.884;12.534;2022-10-04T12:01:03;25.70;99.90
33414;DHT22;60055;41.884;12.534;2022-10-04T12:12:57;25.40;99.90
33414;DHT22;60055;41.884;12.534;2022-10-04T12:21:10;24.90;99.90
33414;DHT22;60055;41.884;12.534;2022-10-04T12:32:15;25.60;99.90
33414;DHT22;60055;41.884;12.534;2022-10-04T12:37:32;25.40;99.90
33414;DHT22;60055;41.884;12.534;2022-10-04T12:40:29;25.40;99.90
33414;DHT22;60055;41.884;12.534;2022-10-04T12:43:15;25.40;99.90
33414;DHT22;60055;41.884;12.534;2022-10-04T12:53:24;25.90;99.90
33414;DHT22;60055;41.884;12.534;2022-10-04T12:56:33;25.90;99.90
33414;DHT22;60055;41.884;12.534;2022-10-04T13:24:19;26.00;99.90
33414;DHT22;60055;41.884;12.534;2022-10-04T13:27:06;26.20;99.90
33414;DHT22;60055;41.884;12.534;2022-10-04T13:29:52;26.00;99.90
33414;DHT22;60055;41.884;12.534;2022-10-04T13:32:27;26.00;99.90
33414;DHT22;60055;41.884;12.534;2022-10-04T13:35:06;26.20;99.90
33414;DHT22;60055;41.884;12.534;2022-10-04T14:11:32;25.50;99.90
33414;DHT22;60055;41.884;12.534;2022-10-04T14:14:21;25.60;99.90
33414;DHT22;60055;41.884;12.534;2022-10-04T14:28:55;25.30;99.90
33414;DHT22;60055;41.884;12.534;2022-10-04T14:34:38;25.30;99.90
33414;DHT22;60055;41.884;12.534;2022-10-04T14:43:00;24.70;99.90
33414;DHT22;60055;41.884;12.534;2022-10-04T14:45:43;24.60;99.90
33414;DHT22;60055;41.884;12.534;2022-10-04T14:48:21;24.50;99.90
33414;DHT22;60055;41.884;12.534;2022-10-04T14:51:19;24.60;99.90
33414;DHT22;60055;41.884;12.534;2022-10-04T14:59:59;24.20;99.90
33414;DHT22;60055;41.884;12.534;2022-10-04T15:06:08;24.20;99.90
33414;DHT22;60055;41.884;12.534;2022-10-04T15:09:05;24.10;99.90
33414;DHT22;60055;41.884;12.534;2022-10-04T15:17:55;23.90;99.90
33414;DHT22;60055;41.884;12.534;2022-10-04T15:30:17;23.80;99.90
33414;DHT22;60055;41.884;12.534;2022-10-04T15:38:52;23.60;99.90
33414;DHT22;60055;41.884;12.534;2022-10-04T15:44:47;23.60;99.90
33414;DHT22;60055;41.884;12.534;2022-10-04T15:48:04;23.40;99.90
33414;DHT22;60055;41.884;12.534;2022-10-04T16:03:36;23.30;99.90
33414;DHT22;60055;41.884;12.534;2022-10-04T16:09:47;23.00;99.90
33414;DHT22;60055;41.884;12.534;2022-10-04T16:15:30;23.10;99.90
33414;DHT22;60055;41.884;12.534;2022-10-04T16:18:24;22.90;99.90
33414;DHT22;60055;41.884;12.534;2022-10-04T16:34:55;22.70;99.90
33414;DHT22;60055;41.884;12.534;2022-10-04T16:42:47;22.50;99.90
33414;DHT22;60055;41.884;12.534;2022-10-04T16:45:31;22.50;99.90
33414;DHT22;60055;41.884;12.534;2022-10-04T16:56:29;22.40;99.90
33414;DHT22;60055;41.884;12.534;2022-10-04T16:59:09;22.40;99.90
33414;DHT22;60055;41.884;12.534;2022-10-04T17:01:44;22.30;92.80
33414;DHT22;60055;41.884;12.534;2022-10-04T17:04:32;22.30;99.90
33414;DHT22;60055;41.884;12.534;2022-10-04T17:07:49;22.40;99.90
33414;DHT22;60055;41.884;12.534;2022-10-04T17:24:21;22.70;99.90
33414;DHT22;60055;41.884;12.534;2022-10-04T17:27:16;22.80;99.90
33414;DHT22;60055;41.884;12.534;2022-10-04T17:30:51;22.90;99.90
33414;DHT22;60055;41.884;12.534;2022-10-04T17:38:50;22.90;99.90
33414;DHT22;60055;41.884;12.534;2022-10-04T17:47:06;22.80;99.90
33414;DHT22;60055;41.884;12.534;2022-10-04T17:49:40;22.80;99.90
33414;DHT22;60055;41.884;12.534;2022-10-04T17:52:30;22.90;99.90
33414;DHT22;60055;41.884;12.534;2022-10-04T17:55:20;22.70;99.90
33414;DHT22;60055;41.884;12.534;2022-10-04T18:05:57;22.80;99.90
33414;DHT22;60055;41.884;12.534;2022-10-04T18:08:45;22.80;99.90
33414;DHT22;60055;41.884;12.534;2022-10-04T18:14:03;22.90;99.90
33414;DHT22;60055;41.884;12.534;2022-10-04T18:16:50;22.80;99.90
33414;DHT22;60055;41.884;12.534;2022-10-04T18:19:36;22.80;99.90
33414;DHT22;60055;41.884;12.534;2022-10-04T18:22:20;22.90;99.90
33414;DHT22;60055;41.884;12.534;2022-10-04T18:25:20;22.90;99.90
33414;DHT22;60055;41.884;12.534;2022-10-04T18:27:49;23.00;99.90
33414;DHT22;60055;41.884;12.534;2022-10-04T18:30:24;23.00;99.90
33414;DHT22;60055;41.884;12.534;2022-10-04T18:32:56;22.90;99.90
33414;DHT22;60055;41.884;12.534;2022-10-04T18:35:32;23.00;99.90
33414;DHT22;60055;41.884;12.534;2022-10-04T18:40:41;22.90;99.90
33414;DHT22;60055;41.884;12.534;2022-10-04T18:46:21;22.90;99.90
33414;DHT22;60055;41.884;12.534;2022-10-04T18:51:29;22.80;99.90
33414;DHT22;60055;41.884;12.534;2022-10-04T19:05:14;22.90;99.90
33414;DHT22;60055;41.884;12.534;2022-10-04T19:11:02;22.80;99.90
33414;DHT22;60055;41.884;12.534;2022-10-04T19:13:35;22.70;99.90
33414;DHT22;60055;41.884;12.534;2022-10-04T19:16:41;22.70;99.90
33414;DHT22;60055;41.884;12.534;2022-10-04T19:25:04;22.80;99.90
33414;DHT22;60055;41.884;12.534;2022-10-04T19:27:37;22.80;99.90
33414;DHT22;60055;41.884;12.534;2022-10-04T19:41:36;22.50;99.90
33414;DHT22;60055;41.884;12.534;2022-10-04T19:46:57;22.40;99.90
33414;DHT22;60055;41.884;12.534;2022-10-04T19:52:25;22.60;99.90
33414;DHT22;60055;41.884;12.534;2022-10-04T19:54:56;22.60;99.90
33414;DHT22;60055;41.884;12.534;2022-10-04T19:57:43;22.60;99.90
33414;DHT22;60055;41.884;12.534;2022-10-04T20:00:12;22.60;99.90
33414;DHT22;60055;41.884;12.534;2022-10-04T20:02:41;22.60;99.90
33414;DHT22;60055;41.884;12.534;2022-10-04T20:05:19;22.60;99.90
33414;DHT22;60055;41.884;12.534;2022-10-04T20:07:50;22.60;99.90
33414;DHT22;60055;41.884;12.534;2022-10-04T20:10:35;22.60;99.90
33414;DHT22;60055;41.884;12.534;2022-10-04T20:15:48;22.50;99.90
33414;DHT22;60055;41.884;12.534;2022-10-04T20:18:56;22.50;99.90
33414;DHT22;60055;41.884;12.534;2022-10-04T20:21:24;22.40;99.90
33414;DHT22;60055;41.884;12.534;2022-10-04T20:23:50;22.40;99.90
33414;DHT22;60055;41.884;12.534;2022-10-04T20:26:36;22.30;99.90
33414;DHT22;60055;41.884;12.534;2022-10-04T20:32:01;22.10;99.90
33414;DHT22;60055;41.884;12.534;2022-10-04T20:37:03;22.30;99.90
33414;DHT22;60055;41.884;12.534;2022-10-04T20:42:27;22.30;99.90
33414;DHT22;60055;41.884;12.534;2022-10-04T20:47:44;22.40;99.90
33414;DHT22;60055;41.884;12.534;2022-10-04T20:50:17;22.50;99.90
33414;DHT22;60055;41.884;12.534;2022-10-04T20:52:52;22.50;99.90
33414;DHT22;60055;41.884;12.534;2022-10-04T20:55:25;22.40;99.90
33414;DHT22;60055;41.884;12.534;2022-10-04T21:00:57;22.40;99.90
33414;DHT22;60055;41.884;12.534;2022-10-04T21:03:24;22.10;99.90
33414;DHT22;60055;41.884;12.534;2022-10-04T21:06:22;22.20;99.90
33414;DHT22;60055;41.884;12.534;2022-10-04T21:08:47;22.20;99.90
33414;DHT22;60055;41.884;12.534;2022-10-04T21:16:39;22.20;99.90
33414;DHT22;60055;41.884;12.534;2022-10-04T21:27:38;21.50;99.90
33414;DHT22;60055;41.884;12.534;2022-10-04T21:30:16;21.40;99.90
33414;DHT22;60055;41.884;12.534;2022-10-04T21:32:44;21.60;99.90
33414;DHT22;60055;41.884;12.534;2022-10-04T21:35:11;21.60;99.90
33414;DHT22;60055;41.884;12.534;2022-10-04T21:37:36;21.60;99.90
33414;DHT22;60055;41.884;12.534;2022-10-04T21:40:03;21.50;97.80
33414;DHT22;60055;41.884;12.534;2022-10-04T21:42:29;21.50;99.90
33414;DHT22;60055;41.884;12.534;2022-10-04T21:44:54;21.40;99.90
33414;DHT22;60055;41.884;12.534;2022-10-04T21:47:20;21.40;99.90
33414;DHT22;60055;41.884;12.534;2022-10-04T21:49:50;21.40;99.90
33414;DHT22;60055;41.884;12.534;2022-10-04T21:52:19;21.40;99.90
33414;DHT22;60055;41.884;12.534;2022-10-04T21:54:45;21.40;99.90
33414;DHT22;60055;41.884;12.534;2022-10-04T21:57:11;21.40;99.90
33414;DHT22;60055;41.884;12.534;2022-10-04T21:59:37;21.40;99.90
33414;DHT22;60055;41.884;12.534;2022-10-04T22:02:03;21.30;99.90
33414;DHT22;60055;41.884;12.534;2022-10-04T22:04:28;21.30;99.90
33414;DHT22;60055;41.884;12.534;2022-10-04T22:06:54;21.30;99.90
33414;DHT22;60055;41.884;12.534;2022-10-04T22:09:20;21.20;99.90
33414;DHT22;60055;41.884;12.534;2022-10-04T22:11:45;21.10;99.90
33414;DHT22;60055;41.884;12.534;2022-10-04T22:14:11;21.20;99.90
33414;DHT22;60055;41.884;12.534;2022-10-04T22:16:37;21.20;99.90
33414;DHT22;60055;41.884;12.534;2022-10-04T22:19:02;21.20;99.90
33414;DHT22;60055;41.884;12.534;2022-10-04T22:21:28;21.20;99.90
33414;DHT22;60055;41.884;12.534;2022-10-04T22:23:54;21.20;99.90
33414;DHT22;60055;41.884;12.534;2022-10-04T22:26:21;21.00;99.90
33414;DHT22;60055;41.884;12.534;2022-10-04T22:28:52;21.00;99.90
33414;DHT22;60055;41.884;12.534;2022-10-04T22:31:21;21.00;99.90
33414;DHT22;60055;41.884;12.534;2022-10-04T22:33:49;21.10;99.90
33414;DHT22;60055;41.884;12.534;2022-10-04T22:41:21;20.80;99.90
33414;DHT22;60055;41.884;12.534;2022-10-04T22:43:49;20.80;99.90
33414;DHT22;60055;41.884;12.534;2022-10-04T22:46:16;20.80;99.90
33414;DHT22;60055;41.884;12.534;2022-10-04T22:48:47;20.70;99.90
33414;DHT22;60055;41.884;12.534;2022-10-04T22:51:13;20.70;99.90
33414;DHT22;60055;41.884;12.534;2022-10-04T22:53:45;20.60;99.90
33414;DHT22;60055;41.884;12.534;2022-10-04T22:56:13;20.70;99.90
33414;DHT22;60055;41.884;12.534;2022-10-04T22:58:40;20.70;99.90
33414;DHT22;60055;41.884;12.534;2022-10-04T23:01:15;20.70;99.90
33414;DHT22;60055;41.884;12.534;2022-10-04T23:03:47;20.70;99.90
33414;DHT22;60055;41.884;12.534;2022-10-04T23:06:13;20.80;99.90
33414;DHT22;60055;41.884;12.534;2022-10-04T23:08:40;20.70;99.90
33414;DHT22;60055;41.884;12.534;2022-10-04T23:11:07;20.50;99.90
33414;DHT22;60055;41.884;12.534;2022-10-04T23:13:34;20.50;99.90
33414;DHT22;60055;41.884;12.534;2022-10-04T23:16:17;20.60;99.90
33414;DHT22;60055;41.884;12.534;2022-10-04T23:18:43;20.50;99.90
33414;DHT22;60055;41.884;12.534;2022-10-04T23:21:32;20.40;99.90
33414;DHT22;60055;41.884;12.534;2022-10-04T23:26:44;20.10;99.90
33414;DHT22;60055;41.884;12.534;2022-10-04T23:29:22;20.20;99.90
33414;DHT22;60055;41.884;12.534;2022-10-04T23:31:48;20.20;99.90
33414;DHT22;60055;41.884;12.534;2022-10-04T23:34:43;20.30;99.90
33414;DHT22;60055;41.884;12.534;2022-10-04T23:37:16;20.30;99.90
33414;DHT22;60055;41.884;12.534;2022-10-04T23:39:42;20.20;99.90
33414;DHT22;60055;41.884;12.534;2022-10-04T23:42:19;20.20;99.90
33414;DHT22;60055;41.884;12.534;2022-10-04T23:44:49;20.30;99.90
33414;DHT22;60055;41.884;12.534;2022-10-04T23:47:19;20.30;99.90
33414;DHT22;60055;41.884;12.534;2022-10-04T23:49:47;20.30;99.90
33414;DHT22;60055;41.884;12.534;2022-10-04T23:52:21;20.20;99.90
33414;DHT22;60055;41.884;12.534;2022-10-04T23:54:50;20.10;99.90
33414;DHT22;60055;41.884;12.534;2022-10-04T23:57:34;20.00;99.90
33414;DHT22;60055;41.884;12.534;2022-10-04T23:59:59;20.00;99.90
